Terminal Aerodrome Forecast
Issued by NWS Mt. Holly, NJ

Current Version | Previous Version | Text Only | Print | Product List | Glossary On
Versions: 1 2 3 4 5 6 7 8 9 10 11 12 13 14 15 16 17 18 19 20 21 22 23 24
653
FTUS41 KPHI 181449 AAA
TAFPHL
TAF AMD
KPHL 181449Z 1815/1918 18008G16KT P6SM BKN120
     FM181700 19010G18KT 6SM -SHRA OVC080
     FM190100 19010G18KT P6SM VCSH OVC060
     FM190700 20015G26KT 4SM SHRA BR OVC025
     FM191100 24016G31KT P6SM VCSH BKN015
     FM191400 27018G38KT P6SM SCT025=

USA.gov is the U.S. government's official web portal to all federal, state and local government web resources and services.